createdAt,value
2023-06-01T00:00:10.683Z,16.70
2023-06-01T00:02:37.530Z,16.70
2023-06-01T00:05:04.595Z,16.70
2023-06-01T00:07:33.974Z,16.70
2023-06-01T00:10:01.440Z,16.50
2023-06-01T00:12:28.145Z,16.50
2023-06-01T00:14:55.298Z,16.50
2023-06-01T00:17:23.739Z,16.50
2023-06-01T00:19:50.563Z,16.40
2023-06-01T00:22:17.856Z,16.30
2023-06-01T00:24:44.643Z,16.20
2023-06-01T00:27:11.763Z,16.20
2023-06-01T00:29:38.377Z,16.00
2023-06-01T00:32:05.633Z,16.00
2023-06-01T00:34:32.271Z,15.90
2023-06-01T00:36:58.884Z,15.80
2023-06-01T00:39:25.499Z,15.70
2023-06-01T00:41:52.101Z,15.60
2023-06-01T00:44:18.949Z,15.60
2023-06-01T00:46:45.861Z,15.70
2023-06-01T00:49:12.678Z,15.70
2023-06-01T00:51:39.476Z,15.70
2023-06-01T00:54:06.248Z,15.70
2023-06-01T00:56:34.218Z,15.70
2023-06-01T00:59:01.275Z,15.70
2023-06-01T01:01:28.637Z,15.80
2023-06-01T01:03:58.996Z,15.80
2023-06-01T01:06:40.972Z,15.80
2023-06-01T01:09:35.340Z,15.80
2023-06-01T01:12:23.869Z,15.80
2023-06-01T01:14:59.807Z,15.80
2023-06-01T01:17:52.358Z,15.70
2023-06-01T01:20:23.955Z,15.60
2023-06-01T01:23:09.255Z,15.70
2023-06-01T01:25:54.724Z,15.60
2023-06-01T01:28:32.750Z,15.60
2023-06-01T01:31:01.375Z,15.70
2023-06-01T01:33:29.169Z,15.60
2023-06-01T01:35:57.316Z,15.60
2023-06-01T01:38:23.956Z,15.70
2023-06-01T01:40:53.521Z,15.70
2023-06-01T01:43:22.017Z,15.70
2023-06-01T01:45:56.024Z,15.70
2023-06-01T01:48:46.972Z,15.60
2023-06-01T01:51:20.658Z,15.60
2023-06-01T01:53:49.829Z,15.60
2023-06-01T01:56:16.927Z,15.60
2023-06-01T01:58:44.353Z,15.50
2023-06-01T02:01:12.282Z,15.40
2023-06-01T02:03:39.126Z,15.30
2023-06-01T02:06:06.399Z,15.30
2023-06-01T02:08:33.103Z,15.30
2023-06-01T02:10:59.902Z,15.30
2023-06-01T02:13:26.672Z,15.30
2023-06-01T02:15:53.368Z,15.20
2023-06-01T02:18:20.708Z,15.20
2023-06-01T02:20:47.354Z,15.20
2023-06-01T02:23:14.148Z,15.10
2023-06-01T02:25:40.957Z,15.00
2023-06-01T02:28:08.364Z,15.00
2023-06-01T02:30:35.120Z,14.90
2023-06-01T02:33:02.256Z,15.00
2023-06-01T02:35:28.918Z,15.00
2023-06-01T02:37:56.174Z,15.00
2023-06-01T02:40:22.864Z,15.00
2023-06-01T02:42:49.532Z,15.00
2023-06-01T02:45:16.301Z,15.10
2023-06-01T02:47:45.095Z,15.10
2023-06-01T02:50:12.030Z,15.10
2023-06-01T02:52:39.039Z,15.20
2023-06-01T02:55:07.185Z,15.20
2023-06-01T02:57:33.942Z,15.20
2023-06-01T03:00:00.709Z,15.20
2023-06-01T03:02:27.435Z,15.20
2023-06-01T03:04:54.489Z,15.20
2023-06-01T03:07:21.462Z,15.20
2023-06-01T03:09:48.157Z,15.20
2023-06-01T03:12:14.871Z,15.10
2023-06-01T03:14:41.463Z,15.10
2023-06-01T03:17:08.165Z,15.20
2023-06-01T03:19:34.822Z,15.10
2023-06-01T03:22:01.533Z,15.10
2023-06-01T03:24:29.130Z,15.10
2023-06-01T03:26:56.503Z,15.10
2023-06-01T03:29:23.174Z,15.00
2023-06-01T03:31:50.191Z,15.00
2023-06-01T03:34:17.226Z,14.90
2023-06-01T03:36:48.925Z,14.80
2023-06-01T03:39:18.600Z,14.70
2023-06-01T03:41:45.644Z,14.60
2023-06-01T03:44:12.843Z,14.50
2023-06-01T03:46:40.628Z,14.50
2023-06-01T03:49:07.347Z,14.40
2023-06-01T03:51:34.092Z,14.40
2023-06-01T03:54:01.685Z,14.40
2023-06-01T03:56:28.583Z,14.40
2023-06-01T03:58:55.513Z,14.40
2023-06-01T04:01:23.563Z,14.40
2023-06-01T04:03:51.407Z,14.40
2023-06-01T04:06:18.763Z,14.50
2023-06-01T04:08:50.209Z,14.40
2023-06-01T04:11:17.749Z,14.40
2023-06-01T04:13:47.391Z,14.40
2023-06-01T04:16:14.192Z,14.40
2023-06-01T04:18:40.958Z,14.40
2023-06-01T04:21:10.361Z,14.50
2023-06-01T04:23:38.386Z,14.50
2023-06-01T04:26:05.926Z,14.50
2023-06-01T04:28:34.061Z,14.40
2023-06-01T04:31:01.744Z,14.30
2023-06-01T04:33:28.913Z,14.40
2023-06-01T04:35:55.707Z,14.30
2023-06-01T04:38:22.493Z,14.30
2023-06-01T04:40:49.239Z,14.30
2023-06-01T04:43:19.885Z,14.30
2023-06-01T04:45:47.442Z,14.40
2023-06-01T04:48:17.572Z,14.40
2023-06-01T04:50:45.456Z,14.50
2023-06-01T04:53:12.168Z,14.50
2023-06-01T04:55:38.972Z,14.50
2023-06-01T04:58:06.484Z,14.50
2023-06-01T05:00:33.143Z,14.50
2023-06-01T05:02:59.838Z,14.50
2023-06-01T05:05:26.697Z,14.50
2023-06-01T05:07:53.339Z,14.60
2023-06-01T05:10:19.995Z,14.60
2023-06-01T05:12:46.687Z,14.70
2023-06-01T05:15:14.039Z,14.70
2023-06-01T05:17:40.987Z,14.90
2023-06-01T05:20:10.329Z,15.00
2023-06-01T05:22:37.253Z,15.10
2023-06-01T05:25:06.557Z,15.10
2023-06-01T05:27:33.174Z,15.30
2023-06-01T05:29:59.812Z,15.40
2023-06-01T05:32:26.433Z,15.60
2023-06-01T05:34:53.433Z,15.70
2023-06-01T05:37:20.473Z,15.90
2023-06-01T05:39:47.080Z,16.00
2023-06-01T05:42:13.740Z,16.10
2023-06-01T05:44:40.367Z,16.20
2023-06-01T05:47:07.231Z,16.30
2023-06-01T05:49:36.414Z,16.30
2023-06-01T05:52:03.091Z,16.60
2023-06-01T05:54:29.712Z,16.60
2023-06-01T05:56:56.421Z,16.70
2023-06-01T05:59:23.143Z,16.70
2023-06-01T06:01:49.905Z,16.70
2023-06-01T06:04:17.274Z,16.80
2023-06-01T06:06:44.134Z,16.80
2023-06-01T06:09:11.187Z,16.80
2023-06-01T06:11:39.320Z,16.80
2023-06-01T06:14:06.148Z,16.90
2023-06-01T06:16:33.015Z,16.90
2023-06-01T06:18:59.646Z,17.00
2023-06-01T06:21:26.294Z,17.10
2023-06-01T06:23:54.046Z,17.10
2023-06-01T06:26:20.716Z,17.10
2023-06-01T06:28:47.396Z,17.20
2023-06-01T06:31:14.016Z,17.20
2023-06-01T06:33:40.644Z,17.20
2023-06-01T06:36:07.320Z,17.30
2023-06-01T06:38:34.185Z,17.30
2023-06-01T06:41:01.228Z,17.30
2023-06-01T06:43:28.215Z,17.40
2023-06-01T06:45:54.817Z,17.40
2023-06-01T06:48:21.766Z,17.50
2023-06-01T06:50:48.625Z,17.50
2023-06-01T06:53:15.211Z,17.50
2023-06-01T06:55:43.832Z,17.60
2023-06-01T06:58:11.796Z,17.60
2023-06-01T07:00:38.579Z,17.70
2023-06-01T07:03:05.397Z,17.70
2023-06-01T07:05:32.156Z,17.80
2023-06-01T07:07:58.817Z,17.90
2023-06-01T07:10:26.750Z,17.90
2023-06-01T07:12:53.482Z,18.00
2023-06-01T07:15:20.343Z,18.00
2023-06-01T07:17:47.023Z,18.10
2023-06-01T07:20:13.737Z,18.10
2023-06-01T07:22:41.015Z,18.20
2023-06-01T07:25:10.390Z,18.30
2023-06-01T07:27:37.615Z,18.40
2023-06-01T07:30:05.444Z,18.40
2023-06-01T07:32:32.283Z,18.50
2023-06-01T07:35:02.764Z,18.60
2023-06-01T07:37:29.595Z,18.60
2023-06-01T07:39:56.194Z,18.60
2023-06-01T07:42:23.148Z,18.70
2023-06-01T07:44:49.955Z,18.80
2023-06-01T07:47:16.703Z,18.80
2023-06-01T07:49:43.941Z,18.80
2023-06-01T07:52:10.889Z,18.90
2023-06-01T07:54:38.191Z,18.90
2023-06-01T07:57:05.693Z,19.00
2023-06-01T07:59:32.972Z,19.00
2023-06-01T08:02:01.497Z,19.00
2023-06-01T08:04:33.620Z,19.10
2023-06-01T08:07:00.381Z,19.20
2023-06-01T08:09:27.399Z,19.20
2023-06-01T08:11:54.685Z,19.20
2023-06-01T08:14:21.510Z,19.30
2023-06-01T08:16:48.169Z,19.30
2023-06-01T08:19:14.843Z,19.50
2023-06-01T08:21:46.638Z,19.40
2023-06-01T08:24:14.238Z,19.50
2023-06-01T08:26:41.164Z,19.50
2023-06-01T08:29:08.085Z,19.60
2023-06-01T08:31:35.227Z,19.70
2023-06-01T08:34:01.931Z,19.80
2023-06-01T08:36:28.565Z,19.80
2023-06-01T08:38:58.951Z,19.80
2023-06-01T08:42:00.393Z,19.90
2023-06-01T08:44:29.807Z,20.00
2023-06-01T08:46:57.330Z,20.00
2023-06-01T08:49:25.904Z,20.10
2023-06-01T08:51:56.230Z,20.20
2023-06-01T08:54:23.541Z,20.20
2023-06-01T08:56:50.238Z,20.30
2023-06-01T08:59:16.894Z,20.30
2023-06-01T09:01:44.325Z,20.30
2023-06-01T09:04:11.087Z,20.50
2023-06-01T09:06:37.963Z,20.60
2023-06-01T09:09:04.779Z,20.50
2023-06-01T09:11:31.536Z,20.60
2023-06-01T09:13:58.603Z,20.60
2023-06-01T09:16:37.914Z,20.60
2023-06-01T09:19:04.755Z,20.70
2023-06-01T09:21:32.260Z,20.80
2023-06-01T09:24:19.218Z,20.90
2023-06-01T09:26:49.940Z,20.90
2023-06-01T09:29:17.463Z,21.00
2023-06-01T09:31:48.851Z,21.10
2023-06-01T09:34:20.838Z,21.20
2023-06-01T09:36:52.536Z,21.20
2023-06-01T09:39:21.749Z,21.20
2023-06-01T09:41:59.786Z,21.30
2023-06-01T09:44:30.998Z,21.40
2023-06-01T09:46:59.580Z,21.50
2023-06-01T09:49:30.575Z,21.50
2023-06-01T09:52:18.559Z,21.50
2023-06-01T09:54:59.437Z,21.60
2023-06-01T09:57:30.200Z,21.60
2023-06-01T09:59:57.275Z,21.60
2023-06-01T10:02:25.208Z,21.70
2023-06-01T10:05:01.947Z,21.70
2023-06-01T10:07:31.691Z,21.80
2023-06-01T10:10:03.589Z,21.90
2023-06-01T10:12:34.354Z,21.90
2023-06-01T10:15:03.908Z,21.90
2023-06-01T10:17:39.201Z,22.00
2023-06-01T10:20:07.476Z,22.00
2023-06-01T10:22:34.410Z,22.10
2023-06-01T10:25:02.185Z,22.20
2023-06-01T10:27:37.865Z,22.20
2023-06-01T10:30:07.808Z,22.30
2023-06-01T10:32:48.288Z,22.30
2023-06-01T10:35:30.542Z,22.40
2023-06-01T10:38:10.844Z,22.40
2023-06-01T10:40:38.463Z,22.50
2023-06-01T10:43:05.332Z,22.60
2023-06-01T10:45:34.706Z,22.60
2023-06-01T10:48:05.878Z,22.70
2023-06-01T10:50:36.511Z,22.80
2023-06-01T10:53:26.838Z,22.80
2023-06-01T10:56:18.780Z,22.80
2023-06-01T10:58:45.550Z,22.80
2023-06-01T11:01:20.337Z,22.80
2023-06-01T11:03:49.049Z,22.90
2023-06-01T11:06:29.291Z,22.90
2023-06-01T11:09:00.428Z,23.00
2023-06-01T11:11:49.355Z,23.10
2023-06-01T11:14:17.219Z,23.20
2023-06-01T11:16:44.041Z,23.20
2023-06-01T11:19:11.849Z,23.20
2023-06-01T11:21:44.181Z,23.20
2023-06-01T11:24:16.240Z,23.20
2023-06-01T11:26:48.143Z,23.30
2023-06-01T11:29:18.251Z,23.40
2023-06-01T11:31:54.694Z,23.40
2023-06-01T11:34:42.707Z,23.40
2023-06-01T11:37:20.963Z,23.50
2023-06-01T11:39:48.673Z,23.50
2023-06-01T11:42:20.731Z,23.50
2023-06-01T11:44:59.127Z,23.60
2023-06-01T11:47:35.422Z,23.50
2023-06-01T11:50:02.096Z,23.60
2023-06-01T11:52:30.251Z,23.60
2023-06-01T11:55:03.602Z,23.60
2023-06-01T11:57:30.272Z,23.70
2023-06-01T11:59:57.087Z,23.80
2023-06-01T12:02:29.014Z,23.80
2023-06-01T12:05:11.468Z,23.80
2023-06-01T12:07:48.337Z,23.90
2023-06-01T12:10:17.786Z,24.00
2023-06-01T12:12:45.357Z,24.00
2023-06-01T12:15:13.357Z,23.90
2023-06-01T12:17:58.823Z,24.00
2023-06-01T12:20:37.382Z,24.10
2023-06-01T12:23:17.736Z,24.10
2023-06-01T12:25:51.713Z,24.00
2023-06-01T12:28:18.738Z,24.10
2023-06-01T12:30:49.388Z,24.20
2023-06-01T12:33:36.103Z,24.20
2023-06-01T12:36:08.199Z,24.40
2023-06-01T12:38:53.649Z,24.40
2023-06-01T12:41:22.457Z,24.40
2023-06-01T12:43:50.586Z,24.40
2023-06-01T12:46:34.333Z,24.50
2023-06-01T12:49:20.965Z,24.50
2023-06-01T12:51:47.929Z,24.40
2023-06-01T12:54:15.033Z,24.50
2023-06-01T12:56:42.232Z,24.60
2023-06-01T12:59:09.097Z,24.50
2023-06-01T13:01:36.454Z,24.50
2023-06-01T13:04:06.215Z,24.60
2023-06-01T13:06:33.006Z,24.70
2023-06-01T13:08:59.676Z,24.80
2023-06-01T13:11:26.394Z,24.70
2023-06-01T13:13:53.223Z,24.80
2023-06-01T13:16:20.326Z,24.70
2023-06-01T13:18:48.789Z,24.70
2023-06-01T13:21:15.955Z,24.80
2023-06-01T13:23:43.066Z,24.90
2023-06-01T13:26:10.566Z,25.00
2023-06-01T13:28:37.706Z,25.00
2023-06-01T13:31:04.648Z,25.00
2023-06-01T13:33:33.318Z,24.90
2023-06-01T13:36:00.273Z,24.90
2023-06-01T13:38:27.545Z,25.10
2023-06-01T13:40:54.213Z,25.20
2023-06-01T13:43:20.949Z,25.30
2023-06-01T13:45:47.749Z,25.20
2023-06-01T13:48:17.943Z,25.10
2023-06-01T13:50:46.436Z,25.00
2023-06-01T13:53:13.054Z,24.90
2023-06-01T13:55:40.547Z,24.90
2023-06-01T13:58:07.225Z,24.90
2023-06-01T14:00:34.235Z,24.80
2023-06-01T14:03:01.309Z,24.90
2023-06-01T14:05:36.063Z,24.80
2023-06-01T14:08:14.759Z,24.90
2023-06-01T14:10:41.937Z,25.00
2023-06-01T14:13:08.622Z,25.20
2023-06-01T14:15:36.057Z,25.10
2023-06-01T14:18:02.756Z,25.20
2023-06-01T14:20:30.026Z,25.20
2023-06-01T14:22:56.677Z,25.30
2023-06-01T14:25:23.341Z,25.40
2023-06-01T14:27:50.376Z,25.50
2023-06-01T14:30:17.298Z,25.50
2023-06-01T14:32:44.125Z,25.60
2023-06-01T14:35:10.855Z,25.60
2023-06-01T14:37:48.474Z,25.60
2023-06-01T14:40:16.178Z,25.70
2023-06-01T14:42:42.881Z,25.80
2023-06-01T14:45:10.098Z,25.90
2023-06-01T14:47:36.832Z,25.90
2023-06-01T14:50:04.443Z,25.80
2023-06-01T14:52:31.122Z,25.60
2023-06-01T14:54:57.862Z,25.50
2023-06-01T14:57:24.581Z,25.40
2023-06-01T15:00:02.484Z,25.20
2023-06-01T15:02:31.422Z,25.10
2023-06-01T15:04:58.322Z,25.10
2023-06-01T15:07:24.990Z,25.10
2023-06-01T15:09:53.972Z,25.20
2023-06-01T15:12:20.660Z,25.20
2023-06-01T15:14:49.041Z,25.40
2023-06-01T15:17:16.141Z,25.60
2023-06-01T15:19:42.892Z,25.70
2023-06-01T15:22:09.751Z,25.70
2023-06-01T15:24:36.592Z,25.50
2023-06-01T15:27:03.269Z,25.50
2023-06-01T15:29:30.134Z,25.60
2023-06-01T15:31:56.862Z,25.60
2023-06-01T15:34:23.604Z,25.60
2023-06-01T15:36:50.312Z,25.50
2023-06-01T15:39:17.286Z,25.40
2023-06-01T15:41:43.916Z,25.30
2023-06-01T15:44:10.802Z,25.30
2023-06-01T15:46:37.440Z,25.30
2023-06-01T15:49:04.163Z,25.30
2023-06-01T15:51:30.933Z,25.30
2023-06-01T15:53:57.868Z,25.30
2023-06-01T15:56:24.505Z,25.30
2023-06-01T15:58:51.466Z,25.30
2023-06-01T16:01:29.281Z,25.20
2023-06-01T16:03:57.411Z,25.20
2023-06-01T16:06:24.676Z,25.20
2023-06-01T16:08:51.349Z,25.40
2023-06-01T16:11:18.120Z,25.50
2023-06-01T16:13:44.800Z,25.60
2023-06-01T16:16:11.493Z,25.70
2023-06-01T16:18:38.881Z,25.80
2023-06-01T16:21:05.816Z,25.80
2023-06-01T16:23:32.586Z,25.70
2023-06-01T16:25:59.286Z,25.80
2023-06-01T16:28:26.021Z,25.80
2023-06-01T16:30:52.732Z,25.80
2023-06-01T16:33:19.394Z,25.80
2023-06-01T16:35:46.056Z,25.80
2023-06-01T16:38:12.820Z,25.80
2023-06-01T16:40:39.546Z,25.90
2023-06-01T16:43:06.527Z,25.90
2023-06-01T16:45:33.193Z,25.90
2023-06-01T16:48:00.028Z,25.80
2023-06-01T16:50:26.796Z,25.70
2023-06-01T16:52:53.477Z,25.70
2023-06-01T16:55:20.224Z,25.70
2023-06-01T16:57:46.898Z,25.80
2023-06-01T17:00:14.055Z,25.80
2023-06-01T17:02:41.118Z,25.70
2023-06-01T17:05:08.183Z,25.80
2023-06-01T17:07:34.857Z,25.80
2023-06-01T17:10:01.830Z,25.90
2023-06-01T17:12:28.484Z,25.90
2023-06-01T17:14:55.158Z,26.00
2023-06-01T17:17:25.280Z,26.00
2023-06-01T17:19:55.224Z,26.00
2023-06-01T17:22:22.135Z,25.90
2023-06-01T17:24:51.216Z,25.90
2023-06-01T17:27:18.329Z,25.80
2023-06-01T17:29:45.023Z,25.70
2023-06-01T17:32:11.678Z,25.60
2023-06-01T17:34:38.478Z,25.50
2023-06-01T17:37:05.915Z,25.40
2023-06-01T17:39:32.846Z,25.40
2023-06-01T17:42:00.946Z,25.40
2023-06-01T17:44:27.696Z,25.30
2023-06-01T17:46:54.985Z,25.30
2023-06-01T17:49:22.269Z,25.30
2023-06-01T17:51:48.950Z,25.30
2023-06-01T17:54:16.038Z,25.30
2023-06-01T17:56:42.798Z,25.30
2023-06-01T17:59:09.658Z,25.10
2023-06-01T18:01:36.499Z,25.00
2023-06-01T18:04:03.561Z,24.90
2023-06-01T18:06:30.368Z,24.80
2023-06-01T18:08:57.323Z,24.80
2023-06-01T18:11:23.970Z,24.70
2023-06-01T18:13:53.014Z,24.70
2023-06-01T18:16:20.690Z,24.70
2023-06-01T18:18:47.640Z,24.60
2023-06-01T18:21:14.479Z,24.60
2023-06-01T18:23:43.181Z,24.60
2023-06-01T18:26:11.480Z,24.50
2023-06-01T18:28:38.116Z,24.50
2023-06-01T18:31:04.939Z,24.40
2023-06-01T18:33:31.648Z,24.30
2023-06-01T18:35:58.777Z,24.30
2023-06-01T18:38:25.586Z,24.20
2023-06-01T18:40:52.233Z,24.30
2023-06-01T18:43:18.895Z,24.30
2023-06-01T18:45:45.690Z,24.20
2023-06-01T18:48:12.424Z,24.10
2023-06-01T18:50:39.559Z,24.10
2023-06-01T18:53:06.154Z,24.00
2023-06-01T18:55:32.825Z,23.90
2023-06-01T18:57:59.489Z,23.80
2023-06-01T19:00:26.781Z,23.80
2023-06-01T19:02:53.412Z,23.80
2023-06-01T19:05:23.743Z,23.70
2023-06-01T19:07:50.537Z,23.70
2023-06-01T19:10:43.079Z,23.60
2023-06-01T19:13:09.696Z,23.50
2023-06-01T19:15:36.487Z,23.40
2023-06-01T19:18:03.814Z,23.40
2023-06-01T19:21:11.975Z,23.40
2023-06-01T19:23:45.711Z,23.40
2023-06-01T19:26:12.754Z,23.30
2023-06-01T19:28:39.347Z,23.30
2023-06-01T19:31:06.781Z,23.30
2023-06-01T19:33:37.098Z,23.20
2023-06-01T19:36:05.521Z,23.20
2023-06-01T19:38:33.101Z,23.20
2023-06-01T19:41:03.313Z,23.20
2023-06-01T19:43:30.074Z,23.00
2023-06-01T19:46:08.199Z,22.90
2023-06-01T19:48:35.911Z,22.80
2023-06-01T19:51:02.536Z,22.70
2023-06-01T19:53:29.471Z,22.60
2023-06-01T19:55:58.811Z,22.60
2023-06-01T19:58:25.781Z,22.60
2023-06-01T20:00:52.644Z,22.50
2023-06-01T20:03:19.358Z,22.40
2023-06-01T20:05:46.118Z,22.20
2023-06-01T20:08:16.228Z,22.20
2023-06-01T20:10:43.120Z,22.10
2023-06-01T20:13:09.814Z,21.90
2023-06-01T20:15:38.547Z,21.90
2023-06-01T20:18:06.904Z,21.80
2023-06-01T20:20:36.255Z,21.80
2023-06-01T20:23:06.013Z,21.70
2023-06-01T20:25:33.531Z,21.60
2023-06-01T20:28:08.032Z,21.50
2023-06-01T20:31:06.944Z,21.50
2023-06-01T20:33:34.594Z,21.40
2023-06-01T20:36:06.840Z,21.30
2023-06-01T20:38:35.559Z,21.30
2023-06-01T20:41:34.742Z,21.20
2023-06-01T20:44:02.037Z,21.20
2023-06-01T20:46:30.983Z,21.20
2023-06-01T20:48:59.662Z,21.20
2023-06-01T20:51:34.712Z,21.20
2023-06-01T20:54:02.637Z,21.10
2023-06-01T20:56:30.694Z,21.10
2023-06-01T20:59:14.692Z,21.10
2023-06-01T21:01:44.029Z,21.10
2023-06-01T21:04:15.556Z,21.00
2023-06-01T21:06:42.909Z,21.00
2023-06-01T21:09:11.718Z,21.00
2023-06-01T21:11:39.085Z,20.80
2023-06-01T21:14:05.862Z,20.80
2023-06-01T21:16:32.855Z,20.80
2023-06-01T21:18:59.710Z,20.70
2023-06-01T21:21:26.606Z,20.70
2023-06-01T21:23:53.934Z,20.70
2023-06-01T21:26:22.481Z,20.70
2023-06-01T21:28:50.306Z,20.60
2023-06-01T21:31:17.281Z,20.50
2023-06-01T21:33:44.986Z,20.50
2023-06-01T21:36:12.235Z,20.40
2023-06-01T21:38:39.976Z,20.30
2023-06-01T21:41:06.933Z,20.20
2023-06-01T21:43:33.736Z,20.10
2023-06-01T21:46:00.666Z,20.10
2023-06-01T21:48:31.116Z,20.00
2023-06-01T21:50:59.064Z,20.00
2023-06-01T21:53:26.639Z,20.00
2023-06-01T21:55:53.757Z,19.90
2023-06-01T21:58:24.281Z,19.90
2023-06-01T22:00:51.924Z,19.80
2023-06-01T22:03:20.496Z,19.80
2023-06-01T22:05:47.504Z,19.80
2023-06-01T22:08:14.477Z,19.70
2023-06-01T22:10:41.327Z,19.70
2023-06-01T22:13:08.178Z,19.70
2023-06-01T22:15:35.568Z,19.80
2023-06-01T22:18:02.865Z,19.80
2023-06-01T22:20:29.814Z,19.80
2023-06-01T22:22:56.597Z,19.70
2023-06-01T22:25:23.476Z,19.60
2023-06-01T22:27:50.147Z,19.60
2023-06-01T22:30:17.103Z,19.50
2023-06-01T22:32:44.075Z,19.50
2023-06-01T22:35:10.767Z,19.50
2023-06-01T22:37:37.545Z,19.50
2023-06-01T22:40:08.429Z,19.40
2023-06-01T22:42:35.279Z,19.50
2023-06-01T22:45:02.705Z,19.30
2023-06-01T22:47:29.930Z,19.30
2023-06-01T22:50:00.311Z,19.20
2023-06-01T22:52:27.380Z,19.10
2023-06-01T22:54:54.705Z,19.10
2023-06-01T22:57:21.668Z,18.90
2023-06-01T22:59:48.479Z,18.80
2023-06-01T23:02:18.784Z,18.70
2023-06-01T23:04:46.035Z,18.60
2023-06-01T23:07:13.898Z,18.60
2023-06-01T23:09:41.444Z,18.50
2023-06-01T23:12:08.556Z,18.50
2023-06-01T23:14:35.280Z,18.50
2023-06-01T23:17:04.508Z,18.50
2023-06-01T23:19:33.950Z,18.70
2023-06-01T23:22:04.308Z,18.50
2023-06-01T23:24:32.480Z,18.40
2023-06-01T23:27:02.209Z,18.30
2023-06-01T23:29:29.422Z,18.30
2023-06-01T23:31:56.303Z,18.20
2023-06-01T23:34:23.296Z,18.10
2023-06-01T23:36:53.708Z,18.10
2023-06-01T23:39:22.329Z,18.10
2023-06-01T23:41:49.955Z,18.00
2023-06-01T23:44:17.388Z,18.00
2023-06-01T23:46:45.834Z,17.90
2023-06-01T23:49:12.868Z,17.90
2023-06-01T23:51:40.067Z,17.80
2023-06-01T23:54:06.897Z,17.80
2023-06-01T23:56:33.795Z,17.90
2023-06-01T23:59:00.678Z,17.80
